createdAt,value
2019-01-02T00:00:08.811Z,1012.17
2019-01-02T00:01:08.774Z,1012.21
2019-01-02T00:02:08.802Z,1012.18
2019-01-02T00:03:08.739Z,1012.15
2019-01-02T00:04:08.724Z,1012.09
2019-01-02T00:05:08.698Z,1012.17
2019-01-02T00:06:08.691Z,1012.23
2019-01-02T00:07:08.666Z,1012.13
2019-01-02T00:08:08.637Z,1012.21
2019-01-02T00:09:08.637Z,1012.08
2019-01-02T00:10:08.595Z,1012.20
2019-01-02T00:11:08.621Z,1012.22
2019-01-02T00:12:08.557Z,1012.14
2019-01-02T00:13:08.956Z,1012.22
2019-01-02T00:14:08.576Z,1012.32
2019-01-02T00:15:08.499Z,1012.34
2019-01-02T00:16:08.470Z,1012.41
2019-01-02T00:17:08.471Z,1012.40
2019-01-02T00:18:08.440Z,1012.29
2019-01-02T00:19:08.417Z,1012.45
2019-01-02T00:20:08.434Z,1012.36
2019-01-02T00:21:08.386Z,1012.34
2019-01-02T00:22:08.354Z,1012.36
2019-01-02T00:23:08.334Z,1012.43
2019-01-02T00:24:08.325Z,1012.36
2019-01-02T00:25:08.302Z,1012.32
2019-01-02T00:26:08.275Z,1012.33
2019-01-02T00:27:08.250Z,1012.31
2019-01-02T00:28:08.240Z,1012.48
2019-01-02T00:29:08.209Z,1012.44
2019-01-02T00:30:08.223Z,1012.21
2019-01-02T00:31:08.174Z,1012.31
2019-01-02T00:32:08.155Z,1012.40
2019-01-02T00:33:08.142Z,1012.47
2019-01-02T00:34:08.113Z,1012.39
2019-01-02T00:35:08.233Z,1012.45
2019-01-02T00:36:08.071Z,1012.51
2019-01-02T00:37:08.066Z,1012.61
2019-01-02T00:38:08.038Z,1012.55
2019-01-02T00:39:09.103Z,1012.64
2019-01-02T00:40:08.009Z,1012.63
2019-01-02T00:41:07.977Z,1012.61
2019-01-02T00:42:07.953Z,1012.54
2019-01-02T00:43:07.947Z,1012.51
2019-01-02T00:44:07.947Z,1012.62
2019-01-02T00:45:07.904Z,1012.59
2019-01-02T00:46:07.880Z,1012.65
2019-01-02T00:47:07.862Z,1012.67
2019-01-02T00:48:07.856Z,1012.66
2019-01-02T00:49:07.860Z,1012.47
2019-01-02T00:50:07.810Z,1012.53
2019-01-02T00:51:07.787Z,1012.56
2019-01-02T00:52:07.766Z,1012.49
2019-01-02T00:53:07.742Z,1012.48
2019-01-02T00:54:07.755Z,1012.50
2019-01-02T00:55:07.720Z,1012.53
2019-01-02T00:56:07.675Z,1012.59
2019-01-02T00:57:07.657Z,1012.55
2019-01-02T00:58:07.642Z,1012.41
2019-01-02T00:59:07.618Z,1012.44
2019-01-02T01:00:07.632Z,1012.48
2019-01-02T01:01:07.576Z,1012.53
2019-01-02T01:02:07.569Z,1012.49
2019-01-02T01:03:07.537Z,1012.51
2019-01-02T01:04:07.526Z,1012.59
2019-01-02T01:05:07.633Z,1012.59
2019-01-02T01:06:07.496Z,1012.66
2019-01-02T01:07:07.461Z,1012.62
2019-01-02T01:08:07.434Z,1012.54
2019-01-02T01:09:07.417Z,1012.59
2019-01-02T01:10:07.400Z,1012.50
2019-01-02T01:11:07.385Z,1012.57
2019-01-02T01:12:07.354Z,1012.54
2019-01-02T01:13:07.334Z,1012.69
2019-01-02T01:14:07.324Z,1012.72
2019-01-02T01:15:07.431Z,1012.75
2019-01-02T01:16:07.281Z,1012.70
2019-01-02T01:17:07.264Z,1012.67
2019-01-02T01:18:07.238Z,1012.75
2019-01-02T01:19:07.224Z,1012.71
2019-01-02T01:20:07.206Z,1012.74
2019-01-02T01:21:07.203Z,1012.79
2019-01-02T01:22:07.166Z,1012.81
2019-01-02T01:23:07.132Z,1012.84
2019-01-02T01:24:07.119Z,1012.85
2019-01-02T01:25:07.102Z,1012.85
2019-01-02T01:26:07.110Z,1012.89
2019-01-02T01:27:07.061Z,1012.83
2019-01-02T01:28:07.046Z,1012.80
2019-01-02T01:29:07.015Z,1012.85
2019-01-02T01:30:06.997Z,1012.84
2019-01-02T01:31:07.021Z,1012.90
2019-01-02T01:32:06.958Z,1012.79
2019-01-02T01:33:06.948Z,1012.88
2019-01-02T01:34:06.952Z,1012.88
2019-01-02T01:35:06.897Z,1012.88
2019-01-02T01:36:06.880Z,1012.92
2019-01-02T01:37:06.869Z,1012.85
2019-01-02T01:38:06.839Z,1012.89
2019-01-02T01:39:06.816Z,1012.95
2019-01-02T01:40:06.863Z,1012.89
2019-01-02T01:41:06.782Z,1012.92
2019-01-02T01:42:06.769Z,1012.95
2019-01-02T01:43:06.746Z,1012.98
2019-01-02T01:44:06.717Z,1012.95
2019-01-02T01:45:06.711Z,1013.00
2019-01-02T01:46:06.691Z,1012.98
2019-01-02T01:47:06.663Z,1013.04
2019-01-02T01:48:06.640Z,1012.96
2019-01-02T01:49:06.620Z,1013.12
2019-01-02T01:50:06.600Z,1013.04
2019-01-02T01:51:06.630Z,1013.05
2019-01-02T01:52:06.615Z,1013.11
2019-01-02T01:53:06.557Z,1013.19
2019-01-02T01:54:06.528Z,1013.14
2019-01-02T01:55:06.501Z,1013.01
2019-01-02T01:56:06.486Z,1013.07
2019-01-02T01:57:06.472Z,1013.14
2019-01-02T01:58:06.456Z,1013.11
2019-01-02T01:59:06.430Z,1013.01
2019-01-02T02:00:06.421Z,1013.14
2019-01-02T02:01:06.378Z,1013.18
2019-01-02T02:02:06.367Z,1013.24
2019-01-02T02:03:06.417Z,1013.14
2019-01-02T02:04:06.331Z,1013.18
2019-01-02T02:05:06.313Z,1013.17
2019-01-02T02:06:06.296Z,1013.17
2019-01-02T02:07:06.261Z,1013.19
2019-01-02T02:08:06.246Z,1013.21
2019-01-02T02:09:06.262Z,1013.22
2019-01-02T02:10:06.214Z,1013.16
2019-01-02T02:11:06.203Z,1013.20
2019-01-02T02:12:06.168Z,1013.22
2019-01-02T02:13:06.167Z,1013.27
2019-01-02T02:14:06.168Z,1013.25
2019-01-02T02:15:06.101Z,1013.36
2019-01-02T02:16:06.086Z,1013.34
2019-01-02T02:17:06.061Z,1013.38
2019-01-02T02:18:06.052Z,1013.38
2019-01-02T02:19:06.066Z,1013.27
2019-01-02T02:20:06.037Z,1013.27
2019-01-02T02:21:05.988Z,1013.23
2019-01-02T02:22:05.965Z,1013.25
2019-01-02T02:23:05.955Z,1013.27
2019-01-02T02:24:05.921Z,1013.38
2019-01-02T02:25:05.947Z,1013.35
2019-01-02T02:26:05.883Z,1013.36
2019-01-02T02:27:05.875Z,1013.40
2019-01-02T02:28:05.851Z,1013.37
2019-01-02T02:29:05.827Z,1013.41
2019-01-02T02:30:05.838Z,1013.42
2019-01-02T02:31:05.790Z,1013.50
2019-01-02T02:32:05.774Z,1013.53
2019-01-02T02:33:05.748Z,1013.53
2019-01-02T02:34:05.738Z,1013.56
2019-01-02T02:35:05.740Z,1013.53
2019-01-02T02:36:05.712Z,1013.59
2019-01-02T02:37:05.664Z,1013.48
2019-01-02T02:38:05.662Z,1013.55
2019-01-02T02:39:05.619Z,1013.51
2019-01-02T02:40:05.615Z,1013.61
2019-01-02T02:41:05.625Z,1013.59
2019-01-02T02:42:05.587Z,1013.59
2019-01-02T02:43:05.573Z,1013.56
2019-01-02T02:44:05.536Z,1013.64
2019-01-02T02:45:05.516Z,1013.60
2019-01-02T02:46:05.515Z,1013.56
2019-01-02T02:47:05.476Z,1013.62
2019-01-02T02:48:05.475Z,1013.56
2019-01-02T02:49:05.433Z,1013.57
2019-01-02T02:50:05.421Z,1013.62
2019-01-02T02:51:05.428Z,1013.59
2019-01-02T02:52:05.416Z,1013.62
2019-01-02T02:53:05.346Z,1013.62
2019-01-02T02:54:05.323Z,1013.67
2019-01-02T02:55:05.321Z,1013.71
2019-01-02T02:56:05.302Z,1013.72
2019-01-02T02:57:05.301Z,1013.79
2019-01-02T02:58:05.256Z,1013.75
2019-01-02T02:59:05.275Z,1013.76
2019-01-02T03:00:05.215Z,1013.79
2019-01-02T03:01:05.207Z,1013.88
2019-01-02T03:02:05.176Z,1013.82
2019-01-02T03:03:05.144Z,1013.80
2019-01-02T03:04:05.142Z,1013.86
2019-01-02T03:05:05.157Z,1013.77
2019-01-02T03:06:05.097Z,1013.93
2019-01-02T03:07:05.068Z,1013.89
2019-01-02T03:08:05.062Z,1013.95
2019-01-02T03:09:05.073Z,1013.97
2019-01-02T03:10:05.025Z,1013.92
2019-01-02T03:11:04.990Z,1014.00
2019-01-02T03:12:04.967Z,1013.98
2019-01-02T03:13:04.960Z,1013.97
2019-01-02T03:14:04.969Z,1013.94
2019-01-02T03:15:04.912Z,1013.95
2019-01-02T03:16:04.927Z,1014.08
2019-01-02T03:17:04.876Z,1014.06
2019-01-02T03:18:04.854Z,1014.10
2019-01-02T03:19:04.890Z,1014.10
2019-01-02T03:20:04.808Z,1014.12
2019-01-02T03:21:04.798Z,1014.11
2019-01-02T03:22:04.767Z,1014.11
2019-01-02T03:23:04.748Z,1014.12
2019-01-02T03:24:04.733Z,1014.15
2019-01-02T03:25:04.777Z,1014.08
2019-01-02T03:26:04.698Z,1014.17
2019-01-02T03:27:04.675Z,1014.23
2019-01-02T03:28:04.660Z,1014.24
2019-01-02T03:29:04.644Z,1014.27
2019-01-02T03:30:04.621Z,1014.23
2019-01-02T03:31:04.605Z,1014.22
2019-01-02T03:32:04.622Z,1014.27
2019-01-02T03:33:04.553Z,1014.24
2019-01-02T03:34:04.575Z,1014.28
2019-01-02T03:35:04.524Z,1014.24
2019-01-02T03:36:04.508Z,1014.34
2019-01-02T03:37:04.475Z,1014.33
2019-01-02T03:38:04.498Z,1014.26
2019-01-02T03:39:04.433Z,1014.17
2019-01-02T03:40:04.443Z,1014.23
2019-01-02T03:41:04.403Z,1014.31
2019-01-02T03:42:04.381Z,1014.24
2019-01-02T03:43:04.360Z,1014.26
2019-01-02T03:44:04.353Z,1014.23
2019-01-02T03:45:04.320Z,1014.27
2019-01-02T03:46:04.301Z,1014.26
2019-01-02T03:47:04.270Z,1014.32
2019-01-02T03:48:04.252Z,1014.33
2019-01-02T03:49:04.246Z,1014.32
2019-01-02T03:50:04.213Z,1014.26
2019-01-02T03:51:04.233Z,1014.39
2019-01-02T03:52:04.186Z,1014.32
2019-01-02T03:53:04.178Z,1014.38
2019-01-02T03:54:04.140Z,1014.43
2019-01-02T03:55:04.118Z,1014.42
2019-01-02T03:56:04.134Z,1014.41
2019-01-02T03:57:04.091Z,1014.39
2019-01-02T03:58:04.058Z,1014.41
2019-01-02T03:59:04.050Z,1014.42
2019-01-02T04:00:04.027Z,1014.42
2019-01-02T04:01:04.032Z,1014.41
2019-01-02T04:02:03.977Z,1014.41
2019-01-02T04:03:03.969Z,1014.43
2019-01-02T04:04:03.934Z,1014.45
2019-01-02T04:05:03.914Z,1014.46
2019-01-02T04:06:03.969Z,1014.46
2019-01-02T04:07:03.870Z,1014.45
2019-01-02T04:08:03.868Z,1014.45
2019-01-02T04:09:03.836Z,1014.40
2019-01-02T04:10:03.822Z,1014.35
2019-01-02T04:11:03.804Z,1014.40
2019-01-02T04:12:03.816Z,1014.39
2019-01-02T04:13:03.757Z,1014.46
2019-01-02T04:14:03.876Z,1014.41
2019-01-02T04:15:03.723Z,1014.41
2019-01-02T04:16:03.703Z,1014.46
2019-01-02T04:17:03.680Z,1014.43
2019-01-02T04:18:03.653Z,1014.43
2019-01-02T04:19:03.648Z,1014.41
2019-01-02T04:20:03.680Z,1014.42
2019-01-02T04:21:03.594Z,1014.42
2019-01-02T04:22:03.591Z,1014.45
2019-01-02T04:23:03.559Z,1014.47
2019-01-02T04:24:03.556Z,1014.47
2019-01-02T04:25:03.515Z,1014.46
2019-01-02T04:26:03.541Z,1014.36
2019-01-02T04:27:03.476Z,1014.46
2019-01-02T04:28:03.465Z,1014.42
2019-01-02T04:29:03.453Z,1014.49
2019-01-02T04:30:03.474Z,1014.45
2019-01-02T04:31:03.421Z,1014.53
2019-01-02T04:32:03.381Z,1014.57
2019-01-02T04:33:03.362Z,1014.52
2019-01-02T04:34:03.343Z,1014.36
2019-01-02T04:35:03.397Z,1014.43
2019-01-02T04:36:03.303Z,1014.54
2019-01-02T04:37:03.293Z,1014.37
2019-01-02T04:38:03.261Z,1014.42
2019-01-02T04:39:03.257Z,1014.46
2019-01-02T04:40:03.237Z,1014.44
2019-01-02T04:41:03.200Z,1014.49
2019-01-02T04:42:03.201Z,1014.52
2019-01-02T04:43:03.165Z,1014.43
2019-01-02T04:44:03.144Z,1014.42
2019-01-02T04:45:03.162Z,1014.55
2019-01-02T04:46:03.133Z,1014.57
2019-01-02T04:47:03.090Z,1014.47
2019-01-02T04:48:03.065Z,1014.50
2019-01-02T04:49:03.034Z,1014.51
2019-01-02T04:50:03.017Z,1014.53
2019-01-02T04:51:03.011Z,1014.49
2019-01-02T04:52:02.975Z,1014.46
2019-01-02T04:53:02.969Z,1014.55
2019-01-02T04:54:02.947Z,1014.53
2019-01-02T04:55:02.929Z,1014.58
2019-01-02T04:56:03.493Z,1014.54
2019-01-02T04:57:02.922Z,1014.42
2019-01-02T04:58:02.859Z,1014.49
2019-01-02T04:59:02.834Z,1014.47
2019-01-02T05:00:02.814Z,1014.51
2019-01-02T05:01:02.800Z,1014.53
2019-01-02T05:02:02.934Z,1014.62
2019-01-02T05:03:02.775Z,1014.66
2019-01-02T05:04:02.750Z,1014.64
2019-01-02T05:05:02.735Z,1014.68
2019-01-02T05:06:02.705Z,1014.68
2019-01-02T05:07:02.681Z,1014.80
2019-01-02T05:08:02.681Z,1014.79
2019-01-02T05:09:02.651Z,1014.83
2019-01-02T05:10:02.631Z,1014.87
2019-01-02T05:11:02.600Z,1014.83
2019-01-02T05:12:02.595Z,1014.87
2019-01-02T05:13:02.636Z,1014.89
2019-01-02T05:14:02.537Z,1014.86
2019-01-02T05:15:02.520Z,1014.81
2019-01-02T05:16:02.509Z,1014.75
2019-01-02T05:17:02.477Z,1014.77
2019-01-02T05:18:02.455Z,1014.67
2019-01-02T05:19:02.490Z,1014.81
2019-01-02T05:20:02.418Z,1014.87
2019-01-02T05:21:02.414Z,1014.91
2019-01-02T05:22:02.423Z,1014.96
2019-01-02T05:23:02.354Z,1014.96
2019-01-02T05:24:02.341Z,1014.93
2019-01-02T05:25:02.352Z,1014.96
2019-01-02T05:26:02.306Z,1014.87
2019-01-02T05:27:02.292Z,1014.89
2019-01-02T05:28:02.266Z,1014.92
2019-01-02T05:29:02.257Z,1014.96
2019-01-02T05:30:02.253Z,1014.94
2019-01-02T05:31:02.202Z,1014.92
2019-01-02T05:32:02.202Z,1014.99
2019-01-02T05:33:02.157Z,1014.99
2019-01-02T05:34:02.170Z,1014.89
2019-01-02T05:35:02.119Z,1014.93
2019-01-02T05:36:02.130Z,1014.85
2019-01-02T05:37:02.089Z,1014.94
2019-01-02T05:38:02.070Z,1014.92
2019-01-02T05:39:02.039Z,1014.96
2019-01-02T05:40:02.172Z,1015.03
2019-01-02T05:41:02.001Z,1015.06
2019-01-02T05:42:01.984Z,1015.05
2019-01-02T05:43:01.968Z,1015.05
2019-01-02T05:44:01.959Z,1015.03
2019-01-02T05:45:01.929Z,1015.05
2019-01-02T05:46:01.909Z,1015.09
2019-01-02T05:47:01.888Z,1015.03
2019-01-02T05:48:01.870Z,1015.10
2019-01-02T05:49:01.842Z,1015.09
2019-01-02T05:50:01.851Z,1015.12
2019-01-02T05:51:01.804Z,1015.17
2019-01-02T05:52:01.791Z,1015.12
2019-01-02T05:53:01.775Z,1015.20
2019-01-02T05:54:01.752Z,1015.16
2019-01-02T05:55:01.735Z,1015.27
2019-01-02T05:56:01.713Z,1015.19
2019-01-02T05:57:01.684Z,1015.21
2019-01-02T05:58:01.811Z,1015.12
2019-01-02T05:59:01.639Z,1015.10
2019-01-02T06:00:01.639Z,1015.09
2019-01-02T06:01:01.602Z,1015.03
2019-01-02T06:02:01.593Z,1015.04
2019-01-02T06:03:01.572Z,1014.99
2019-01-02T06:04:01.584Z,1015.03
2019-01-02T06:05:01.537Z,1014.94
2019-01-02T06:06:01.519Z,1015.08
2019-01-02T06:07:01.492Z,1015.16
2019-01-02T06:08:01.475Z,1015.07
2019-01-02T06:09:01.472Z,1015.22
2019-01-02T06:10:01.433Z,1015.10
2019-01-02T06:11:01.412Z,1015.25
2019-01-02T06:12:01.394Z,1015.22
2019-01-02T06:13:01.380Z,1015.27
2019-01-02T06:14:01.490Z,1015.24
2019-01-02T06:15:01.345Z,1015.15
2019-01-02T06:16:01.310Z,1015.21
2019-01-02T06:17:01.288Z,1015.23
2019-01-02T06:18:01.284Z,1015.23
2019-01-02T06:19:01.250Z,1015.24
2019-01-02T06:20:01.270Z,1015.24
2019-01-02T06:21:01.237Z,1015.22
2019-01-02T06:22:01.221Z,1015.31
2019-01-02T06:23:01.168Z,1015.30
2019-01-02T06:24:01.142Z,1015.30
2019-01-02T06:25:01.121Z,1015.35
2019-01-02T06:26:01.109Z,1015.32
2019-01-02T06:27:01.123Z,1015.34
2019-01-02T06:28:01.071Z,1015.36
2019-01-02T06:29:01.047Z,1015.35
2019-01-02T06:30:01.195Z,1015.29
2019-01-02T06:31:01.017Z,1015.21
2019-01-02T06:32:00.997Z,1015.27
2019-01-02T06:33:00.971Z,1015.27
2019-01-02T06:34:00.961Z,1015.36
2019-01-02T06:35:00.933Z,1015.29
2019-01-02T06:36:00.924Z,1015.39
2019-01-02T06:37:00.897Z,1015.45
2019-01-02T06:38:00.866Z,1015.44
2019-01-02T06:39:00.851Z,1015.40
2019-01-02T06:40:00.980Z,1015.44
2019-01-02T06:41:00.825Z,1015.46
2019-01-02T06:42:00.790Z,1015.50
2019-01-02T06:43:00.778Z,1015.55
2019-01-02T06:44:00.748Z,1015.63
2019-01-02T06:45:00.730Z,1015.59
2019-01-02T06:46:00.743Z,1015.63
2019-01-02T06:47:00.687Z,1015.66
2019-01-02T06:48:00.674Z,1015.56
2019-01-02T06:49:00.676Z,1015.70
2019-01-02T06:50:00.635Z,1015.70
2019-01-02T06:51:00.638Z,1015.72
2019-01-02T06:52:00.583Z,1015.65
2019-01-02T06:53:00.602Z,1015.70
2019-01-02T06:54:00.549Z,1015.72
2019-01-02T06:55:00.531Z,1015.77
2019-01-02T06:56:00.670Z,1015.81
2019-01-02T06:57:00.488Z,1015.77
2019-01-02T06:58:00.467Z,1015.83
2019-01-02T06:59:00.448Z,1015.92
2019-01-02T07:00:00.447Z,1015.86
2019-01-02T07:01:00.404Z,1015.82
2019-01-02T07:02:00.422Z,1015.92
2019-01-02T07:03:00.370Z,1015.89
2019-01-02T07:04:00.354Z,1015.90
2019-01-02T07:05:00.332Z,1015.87
2019-01-02T07:06:00.460Z,1015.93
2019-01-02T07:07:00.296Z,1015.97
2019-01-02T07:08:00.266Z,1015.97
2019-01-02T07:09:00.243Z,1015.83
2019-01-02T07:10:00.234Z,1015.97
2019-01-02T07:11:00.216Z,1016.02
2019-01-02T07:12:00.220Z,1016.02
2019-01-02T07:13:00.164Z,1016.14
2019-01-02T07:14:00.149Z,1016.11
2019-01-02T07:15:00.170Z,1016.17
2019-01-02T07:16:00.114Z,1016.17
2019-01-02T07:17:00.141Z,1016.22
2019-01-02T07:18:00.064Z,1016.28
2019-01-02T07:19:00.052Z,1016.26
2019-01-02T07:20:00.092Z,1016.26
2019-01-02T07:21:00.001Z,1016.28
2019-01-02T07:21:59.986Z,1016.39
2019-01-02T07:22:59.974Z,1016.36
2019-01-02T07:23:59.964Z,1016.41
2019-01-02T07:24:59.934Z,1016.39
2019-01-02T07:25:59.902Z,1016.40
2019-01-02T07:26:59.914Z,1016.41
2019-01-02T07:27:59.890Z,1016.46
2019-01-02T07:28:59.853Z,1016.49
2019-01-02T07:29:59.839Z,1016.40
2019-01-02T07:30:59.820Z,1016.45
2019-01-02T07:31:59.801Z,1016.53
2019-01-02T07:32:59.811Z,1016.56
2019-01-02T07:33:59.751Z,1016.64
2019-01-02T07:34:59.732Z,1016.67
2019-01-02T07:35:59.714Z,1016.72
2019-01-02T07:36:59.694Z,1016.68
2019-01-02T07:37:59.817Z,1016.77
2019-01-02T07:38:59.661Z,1016.74
2019-01-02T07:39:59.645Z,1016.73
2019-01-02T07:40:59.617Z,1016.81
2019-01-02T07:41:59.611Z,1016.80
2019-01-02T07:42:59.568Z,1016.86
2019-01-02T07:43:59.578Z,1016.86
2019-01-02T07:44:59.545Z,1016.89
2019-01-02T07:45:59.504Z,1016.88
2019-01-02T07:46:59.498Z,1016.90
2019-01-02T07:47:59.491Z,1016.95
2019-01-02T07:48:59.471Z,1016.90
2019-01-02T07:49:59.437Z,1016.93
2019-01-02T07:51:00.374Z,1017.03
2019-01-02T07:51:59.389Z,1017.06
2019-01-02T07:52:59.378Z,1017.04
2019-01-02T07:53:59.355Z,1017.15
2019-01-02T07:54:59.328Z,1017.12
2019-01-02T07:55:59.351Z,1017.13
2019-01-02T07:56:59.289Z,1017.12
2019-01-02T07:57:59.269Z,1017.16
2019-01-02T07:58:59.259Z,1017.18
2019-01-02T07:59:59.242Z,1017.23
2019-01-02T08:00:59.269Z,1017.22
2019-01-02T08:01:59.190Z,1017.16
2019-01-02T08:02:59.183Z,1017.20
2019-01-02T08:03:59.157Z,1017.19
2019-01-02T08:04:59.131Z,1017.17
2019-01-02T08:05:59.113Z,1017.19
2019-01-02T08:06:59.130Z,1017.19
2019-01-02T08:07:59.070Z,1017.20
2019-01-02T08:08:59.065Z,1017.20
2019-01-02T08:09:59.042Z,1017.24
2019-01-02T08:10:59.207Z,1017.28
2019-01-02T08:11:58.989Z,1017.29
2019-01-02T08:12:58.987Z,1017.30
2019-01-02T08:13:58.966Z,1017.33
2019-01-02T08:15:02.986Z,1017.38
2019-01-02T08:15:58.921Z,1017.46
2019-01-02T08:16:58.927Z,1017.42
2019-01-02T08:17:58.880Z,1017.47
2019-01-02T08:18:58.856Z,1017.53
2019-01-02T08:19:58.840Z,1017.52
2019-01-02T08:20:58.823Z,1017.51
2019-01-02T08:21:58.830Z,1017.52
2019-01-02T08:22:58.800Z,1017.51
2019-01-02T08:23:58.767Z,1017.52
2019-01-02T08:24:58.730Z,1017.54
2019-01-02T08:25:58.716Z,1017.54
2019-01-02T08:26:58.693Z,1017.62
2019-01-02T08:27:58.703Z,1017.61
2019-01-02T08:28:58.660Z,1017.70
2019-01-02T08:29:58.629Z,1017.70
2019-01-02T08:30:58.659Z,1017.71
2019-01-02T08:31:58.593Z,1017.71
2019-01-02T08:32:58.571Z,1017.68
2019-01-02T08:33:58.566Z,1017.79
2019-01-02T08:34:58.545Z,1017.79
2019-01-02T08:35:58.535Z,1017.85
2019-01-02T08:36:58.489Z,1017.89
2019-01-02T08:37:58.471Z,1017.95
2019-01-02T08:38:58.449Z,1017.85
2019-01-02T08:39:58.430Z,1017.90
2019-01-02T08:40:58.439Z,1017.92
2019-01-02T08:41:58.412Z,1017.97
2019-01-02T08:42:58.379Z,1018.01
2019-01-02T08:43:58.358Z,1017.98
2019-01-02T08:44:58.331Z,1017.97
2019-01-02T08:45:58.352Z,1017.99
2019-01-02T08:46:58.337Z,1017.96
2019-01-02T08:47:58.278Z,1018.00
2019-01-02T08:48:58.265Z,1017.94
2019-01-02T08:49:58.228Z,1017.97
2019-01-02T08:50:58.224Z,1017.95
2019-01-02T08:51:58.199Z,1018.00
2019-01-02T08:52:58.223Z,1017.97
2019-01-02T08:53:58.161Z,1018.00
2019-01-02T08:54:58.132Z,1018.08
2019-01-02T08:55:58.133Z,1018.09
2019-01-02T08:56:58.232Z,1018.09
2019-01-02T08:57:58.069Z,1018.13
2019-01-02T08:58:58.053Z,1018.14
2019-01-02T08:59:58.053Z,1018.14
2019-01-02T09:00:58.023Z,1018.17
2019-01-02T09:01:58.001Z,1018.22
2019-01-02T09:02:58.042Z,1018.27
2019-01-02T09:03:57.963Z,1018.28
2019-01-02T09:04:57.942Z,1018.23
2019-01-02T09:05:57.924Z,1018.22
2019-01-02T09:06:57.893Z,1018.31
2019-01-02T09:07:57.872Z,1018.31
2019-01-02T09:08:57.886Z,1018.32
2019-01-02T09:09:57.849Z,1018.35
2019-01-02T09:10:57.828Z,1018.35
2019-01-02T09:11:57.800Z,1018.30
2019-01-02T09:12:57.787Z,1018.29
2019-01-02T09:13:57.761Z,1018.33
2019-01-02T09:14:58.025Z,1018.35
2019-01-02T09:15:57.731Z,1018.42
2019-01-02T09:16:57.690Z,1018.42
2019-01-02T09:17:57.673Z,1018.38
2019-01-02T09:18:57.696Z,1018.39
2019-01-02T09:19:57.645Z,1018.43
2019-01-02T09:20:57.615Z,1018.48
2019-01-02T09:21:57.675Z,1018.45
2019-01-02T09:22:57.570Z,1018.53
2019-01-02T09:23:57.566Z,1018.52
2019-01-02T09:24:57.550Z,1018.59
2019-01-02T09:25:57.514Z,1018.65
2019-01-02T09:26:57.502Z,1018.68
2019-01-02T09:27:57.618Z,1018.68
2019-01-02T09:28:57.465Z,1018.71
2019-01-02T09:29:57.437Z,1018.71
2019-01-02T09:30:57.417Z,1018.72
2019-01-02T09:31:57.395Z,1018.69
2019-01-02T09:32:57.376Z,1018.74
2019-01-02T09:33:57.583Z,1018.79
2019-01-02T09:34:57.348Z,1018.79
2019-01-02T09:35:57.323Z,1018.81
2019-01-02T09:36:57.335Z,1018.85
2019-01-02T09:37:57.348Z,1018.92
2019-01-02T09:38:57.270Z,1018.87
2019-01-02T09:39:57.237Z,1018.92
2019-01-02T09:40:58.391Z,1018.88
2019-01-02T09:41:57.205Z,1018.97
2019-01-02T09:42:57.176Z,1018.95
2019-01-02T09:43:57.199Z,1018.88
2019-01-02T09:44:57.147Z,1018.97
2019-01-02T09:45:57.131Z,1018.90
2019-01-02T09:46:57.123Z,1018.96
2019-01-02T09:47:57.362Z,1018.96
2019-01-02T09:48:57.070Z,1019.01
2019-01-02T09:49:57.035Z,1018.96
2019-01-02T09:50:57.017Z,1018.95
2019-01-02T09:51:57.014Z,1019.01
2019-01-02T09:52:56.988Z,1018.97
2019-01-02T09:53:56.992Z,1019.04
2019-01-02T09:55:01.378Z,1019.09
2019-01-02T09:55:56.918Z,1019.07
2019-01-02T09:56:56.912Z,1019.08
2019-01-02T09:57:57.037Z,1019.06
2019-01-02T09:58:56.868Z,1019.05
2019-01-02T09:59:58.978Z,1019.04
2019-01-02T10:00:56.831Z,1019.07
2019-01-02T10:01:56.801Z,1019.09
2019-01-02T10:02:56.791Z,1019.08
2019-01-02T10:03:56.802Z,1019.11
2019-01-02T10:04:56.748Z,1019.09
2019-01-02T10:05:56.733Z,1019.16
2019-01-02T10:06:56.710Z,1019.21
2019-01-02T10:07:56.693Z,1019.14
2019-01-02T10:08:56.992Z,1019.15
2019-01-02T10:09:56.647Z,1019.18
2019-01-02T10:10:56.629Z,1019.13
2019-01-02T10:11:56.615Z,1019.20
2019-01-02T10:12:56.587Z,1019.17
2019-01-02T10:13:56.577Z,1019.12
2019-01-02T10:14:56.593Z,1019.18
2019-01-02T10:15:56.539Z,1019.22
2019-01-02T10:16:56.520Z,1019.17
2019-01-02T10:17:56.492Z,1019.15
2019-01-02T10:18:56.482Z,1019.21
2019-01-02T10:19:56.460Z,1019.19
2019-01-02T10:20:56.477Z,1019.18
2019-01-02T10:21:56.421Z,1019.26
2019-01-02T10:22:56.399Z,1019.24
2019-01-02T10:23:56.374Z,1019.26
2019-01-02T10:24:56.387Z,1019.27
2019-01-02T10:25:56.340Z,1019.20
2019-01-02T10:26:56.310Z,1019.31
2019-01-02T10:27:56.291Z,1019.28
2019-01-02T10:28:56.285Z,1019.29
2019-01-02T10:29:56.289Z,1019.28
2019-01-02T10:30:56.230Z,1019.31
2019-01-02T10:31:56.264Z,1019.25
2019-01-02T10:32:56.225Z,1019.27
2019-01-02T10:33:56.174Z,1019.24
2019-01-02T10:34:56.158Z,1019.25
2019-01-02T10:35:56.136Z,1019.32
2019-01-02T10:36:56.116Z,1019.33
2019-01-02T10:37:56.232Z,1019.36
2019-01-02T10:38:56.079Z,1019.30
2019-01-02T10:39:56.070Z,1019.32
2019-01-02T10:40:56.045Z,1019.30
2019-01-02T10:41:56.030Z,1019.30
2019-01-02T10:42:55.995Z,1019.30
2019-01-02T10:43:56.049Z,1019.26
2019-01-02T10:44:55.960Z,1019.33
2019-01-02T10:45:55.938Z,1019.33
2019-01-02T10:46:55.931Z,1019.39
2019-01-02T10:47:55.900Z,1019.41
2019-01-02T10:48:55.924Z,1019.39
2019-01-02T10:49:55.863Z,1019.42
2019-01-02T10:50:55.847Z,1019.41
2019-01-02T10:51:55.823Z,1019.36
2019-01-02T10:52:55.860Z,1019.36
2019-01-02T10:53:55.795Z,1019.45
2019-01-02T10:54:55.770Z,1019.41
2019-01-02T10:55:55.747Z,1019.41
2019-01-02T10:56:55.734Z,1019.43
2019-01-02T10:57:55.738Z,1019.42
2019-01-02T10:58:55.697Z,1019.44
2019-01-02T10:59:55.681Z,1019.43
2019-01-02T11:00:55.655Z,1019.26
2019-01-02T11:01:55.624Z,1019.44
2019-01-02T11:02:55.626Z,1019.57
2019-01-02T11:03:55.596Z,1019.45
2019-01-02T11:04:55.633Z,1019.43
2019-01-02T11:05:55.553Z,1019.47
2019-01-02T11:06:55.539Z,1019.51
2019-01-02T11:07:55.525Z,1019.43
2019-01-02T11:08:55.501Z,1019.40
2019-01-02T11:09:55.486Z,1019.51
2019-01-02T11:10:55.505Z,1019.51
2019-01-02T11:11:55.440Z,1019.49
2019-01-02T11:12:55.412Z,1019.57
2019-01-02T11:13:55.397Z,1019.51
2019-01-02T11:14:55.376Z,1019.52
2019-01-02T11:15:55.394Z,1019.51
2019-01-02T11:16:55.346Z,1019.48
2019-01-02T11:17:55.314Z,1019.47
2019-01-02T11:18:55.309Z,1019.56
2019-01-02T11:19:55.276Z,1019.47
2019-01-02T11:20:55.262Z,1019.53
2019-01-02T11:21:55.246Z,1019.60
2019-01-02T11:22:55.233Z,1019.56
2019-01-02T11:23:55.209Z,1019.56
2019-01-02T11:24:55.195Z,1019.58
2019-01-02T11:25:55.175Z,1019.57
2019-01-02T11:26:55.155Z,1019.64
2019-01-02T11:27:55.125Z,1019.68
2019-01-02T11:28:55.171Z,1019.31
2019-01-02T11:29:55.092Z,1019.54
2019-01-02T11:30:55.080Z,1019.53
2019-01-02T11:31:55.047Z,1019.51
2019-01-02T11:32:55.043Z,1019.54
2019-01-02T11:33:55.013Z,1019.61
2019-01-02T11:34:55.029Z,1019.56
2019-01-02T11:35:54.982Z,1019.58
2019-01-02T11:36:54.957Z,1019.57
2019-01-02T11:37:54.937Z,1019.59
2019-01-02T11:38:55.026Z,1019.62
2019-01-02T11:39:54.902Z,1019.54
2019-01-02T11:40:54.873Z,1019.61
2019-01-02T11:41:54.874Z,1019.61
2019-01-02T11:42:54.855Z,1019.60
2019-01-02T11:43:54.825Z,1019.60
2019-01-02T11:44:54.842Z,1019.56
2019-01-02T11:45:54.791Z,1019.60
2019-01-02T11:46:54.773Z,1019.60
2019-01-02T11:47:54.784Z,1019.59
2019-01-02T11:48:54.730Z,1019.57
2019-01-02T11:49:54.708Z,1019.55
2019-01-02T11:50:54.732Z,1019.58
2019-01-02T11:51:54.669Z,1019.56
2019-01-02T11:52:54.673Z,1019.57
2019-01-02T11:53:54.624Z,1019.52
2019-01-02T11:54:54.793Z,1019.55
2019-01-02T11:55:54.594Z,1019.55
2019-01-02T11:56:54.568Z,1019.55
2019-01-02T11:57:54.580Z,1019.56
2019-01-02T11:58:54.526Z,1019.55
2019-01-02T11:59:54.516Z,1019.57
2019-01-02T12:00:54.495Z,1019.60
2019-01-02T12:01:54.515Z,1019.56
2019-01-02T12:02:54.459Z,1019.51
2019-01-02T12:03:54.423Z,1019.54
2019-01-02T12:04:54.408Z,1019.59